createdAt,value
2023-02-21T00:02:42.027Z,7.30
2023-02-21T00:05:27.380Z,7.33
2023-02-21T00:08:12.506Z,7.50
2023-02-21T00:10:57.716Z,6.73
2023-02-21T00:13:44.824Z,7.27
2023-02-21T00:16:34.292Z,6.53
2023-02-21T00:19:19.377Z,6.07
2023-02-21T00:22:04.772Z,6.20
2023-02-21T00:24:49.930Z,6.67
2023-02-21T00:27:35.448Z,6.37
2023-02-21T00:30:23.093Z,6.47
2023-02-21T00:33:08.573Z,6.40
2023-02-21T00:35:54.006Z,6.07
2023-02-21T00:38:39.130Z,5.93
2023-02-21T00:41:24.532Z,6.20
2023-02-21T00:44:09.951Z,6.10
2023-02-21T00:46:56.573Z,5.40
2023-02-21T00:49:41.854Z,5.33
2023-02-21T00:52:27.162Z,5.00
2023-02-21T00:55:12.520Z,5.10
2023-02-21T00:57:57.807Z,5.83
2023-02-21T01:00:43.413Z,4.93
2023-02-21T01:03:30.080Z,4.70
2023-02-21T01:06:15.416Z,4.60
2023-02-21T01:09:02.013Z,4.63
2023-02-21T01:11:47.368Z,3.60
2023-02-21T01:14:32.696Z,3.60
2023-02-21T01:17:18.046Z,3.30
2023-02-21T01:20:04.547Z,3.07
2023-02-21T01:22:49.826Z,2.83
2023-02-21T01:25:35.237Z,3.00
2023-02-21T01:28:20.433Z,2.60
2023-02-21T01:31:05.917Z,2.83
2023-02-21T01:33:54.818Z,2.57
2023-02-21T01:36:41.439Z,2.20
2023-02-21T01:39:26.847Z,2.60
2023-02-21T01:42:11.964Z,2.23
2023-02-21T01:44:59.798Z,2.60
2023-02-21T01:47:45.127Z,2.20
2023-02-21T01:50:37.720Z,2.73
2023-02-21T01:53:27.221Z,2.53
2023-02-21T01:56:14.617Z,2.93
2023-02-21T01:59:00.427Z,2.90
2023-02-21T02:02:05.597Z,2.60
2023-02-21T02:04:51.951Z,2.30
2023-02-21T02:07:37.347Z,2.90
2023-02-21T02:10:26.748Z,2.70
2023-02-21T02:13:15.730Z,2.83
2023-02-21T02:15:53.647Z,2.80
2023-02-21T02:18:51.148Z,2.70
2023-02-21T02:22:15.619Z,2.43
2023-02-21T02:25:01.410Z,2.80
2023-02-21T02:27:52.108Z,2.67
2023-02-21T02:31:13.757Z,2.10
2023-02-21T02:34:23.479Z,2.33
2023-02-21T02:36:57.254Z,2.30
2023-02-21T02:39:33.203Z,2.30
2023-02-21T02:42:08.725Z,2.20
2023-02-21T02:44:41.023Z,2.50
2023-02-21T02:47:15.523Z,2.50
2023-02-21T02:49:45.805Z,2.43
2023-02-21T02:52:14.784Z,2.70
2023-02-21T02:54:42.408Z,2.23
2023-02-21T02:57:13.589Z,2.20
2023-02-21T02:59:45.759Z,2.60
2023-02-21T03:02:31.717Z,2.37
2023-02-21T03:05:20.342Z,2.37
2023-02-21T03:07:58.676Z,2.10
2023-02-21T03:10:39.284Z,2.10
2023-02-21T03:13:13.558Z,2.10
2023-02-21T03:15:49.594Z,2.67
2023-02-21T03:18:23.865Z,2.13
2023-02-21T03:20:55.368Z,1.50
2023-02-21T03:23:27.275Z,2.37
2023-02-21T03:25:57.272Z,1.90
2023-02-21T03:28:26.388Z,1.50
2023-02-21T03:30:56.981Z,2.10
2023-02-21T03:33:24.927Z,2.03
2023-02-21T03:35:54.341Z,1.60
2023-02-21T03:38:22.195Z,1.77
2023-02-21T03:40:51.569Z,1.90
2023-02-21T03:43:19.156Z,2.27
2023-02-21T03:45:46.728Z,1.80
2023-02-21T03:48:20.284Z,2.00
2023-02-21T03:50:53.674Z,1.90
2023-02-21T03:53:21.289Z,2.03
2023-02-21T03:55:48.912Z,1.67
2023-02-21T03:58:18.003Z,1.77
2023-02-21T04:00:45.711Z,1.53
2023-02-21T04:03:13.691Z,1.63
2023-02-21T04:05:41.288Z,2.10
2023-02-21T04:08:09.020Z,1.67
2023-02-21T04:10:46.836Z,1.70
2023-02-21T04:13:20.913Z,1.80
2023-02-21T04:15:48.640Z,1.80
2023-02-21T04:18:16.225Z,1.60
2023-02-21T04:20:43.832Z,1.70
2023-02-21T04:23:11.518Z,2.00
2023-02-21T04:25:39.152Z,2.23
2023-02-21T04:28:06.767Z,2.50
2023-02-21T04:30:35.832Z,1.90
2023-02-21T04:33:03.958Z,2.20
2023-02-21T04:35:31.723Z,2.20
2023-02-21T04:37:59.351Z,1.87
2023-02-21T04:40:26.944Z,2.00
2023-02-21T04:42:54.531Z,1.80
2023-02-21T04:45:22.214Z,1.70
2023-02-21T04:47:51.185Z,1.80
2023-02-21T04:50:19.258Z,1.90
2023-02-21T04:52:48.537Z,2.27
2023-02-21T04:55:16.819Z,1.90
2023-02-21T04:57:44.432Z,1.93
2023-02-21T05:00:13.549Z,1.90
2023-02-21T05:02:44.178Z,1.70
2023-02-21T05:05:13.779Z,1.80
2023-02-21T05:07:42.422Z,2.00
2023-02-21T05:10:10.918Z,2.03
2023-02-21T05:12:39.925Z,2.00
2023-02-21T05:15:08.667Z,1.77
2023-02-21T05:17:36.282Z,2.10
2023-02-21T05:20:04.888Z,1.90
2023-02-21T05:22:34.333Z,2.20
2023-02-21T05:25:01.927Z,2.30
2023-02-21T05:27:29.553Z,2.30
2023-02-21T05:29:57.157Z,2.13
2023-02-21T05:32:24.798Z,2.70
2023-02-21T05:34:52.472Z,2.10
2023-02-21T05:37:21.324Z,2.70
2023-02-21T05:39:50.565Z,2.63
2023-02-21T05:42:18.477Z,2.40
2023-02-21T05:44:46.391Z,2.57
2023-02-21T05:47:14.329Z,2.70
2023-02-21T05:49:42.349Z,3.07
2023-02-21T05:52:13.400Z,3.40
2023-02-21T05:54:40.999Z,3.53
2023-02-21T05:57:11.613Z,3.50
2023-02-21T05:59:39.598Z,3.37
2023-02-21T06:02:07.373Z,3.40
2023-02-21T06:04:35.038Z,3.40
2023-02-21T06:07:02.675Z,3.50
2023-02-21T06:09:30.933Z,3.70
2023-02-21T06:11:58.747Z,3.70
2023-02-21T06:14:27.856Z,3.63
2023-02-21T06:16:55.577Z,2.67
2023-02-21T06:19:23.238Z,4.67
2023-02-21T06:21:50.838Z,3.73
2023-02-21T06:24:18.476Z,4.70
2023-02-21T06:26:46.113Z,4.90
2023-02-21T06:29:14.232Z,4.67
2023-02-21T06:31:43.219Z,4.60
2023-02-21T06:34:10.850Z,4.50
2023-02-21T06:36:39.191Z,5.53
2023-02-21T06:39:08.057Z,5.80
2023-02-21T06:41:35.678Z,5.47
2023-02-21T06:44:03.341Z,5.90
2023-02-21T06:46:31.520Z,5.80
2023-02-21T06:49:00.498Z,5.97
2023-02-21T06:51:29.504Z,5.73
2023-02-21T06:53:58.921Z,5.43
2023-02-21T06:56:27.202Z,5.40
2023-02-21T06:58:55.128Z,6.20
2023-02-21T07:01:23.780Z,6.33
2023-02-21T07:03:51.659Z,6.33
2023-02-21T07:06:20.637Z,6.60
2023-02-21T07:08:48.310Z,6.73
2023-02-21T07:11:17.379Z,6.80
2023-02-21T07:13:48.414Z,7.03
2023-02-21T07:16:18.047Z,5.90
2023-02-21T07:18:45.979Z,6.87
2023-02-21T07:21:15.103Z,5.97
2023-02-21T07:23:45.766Z,7.20
2023-02-21T07:26:14.183Z,6.10
2023-02-21T07:28:42.102Z,5.97
2023-02-21T07:31:10.847Z,6.30
2023-02-21T07:33:38.543Z,7.20
2023-02-21T07:36:06.865Z,5.70
2023-02-21T07:38:34.497Z,5.90
2023-02-21T07:41:04.510Z,6.47
2023-02-21T07:43:33.079Z,6.70
2023-02-21T07:46:00.875Z,7.00
2023-02-21T07:48:28.598Z,7.33
2023-02-21T07:50:56.190Z,6.90
2023-02-21T07:53:23.792Z,8.10
2023-02-21T07:55:51.397Z,6.57
2023-02-21T07:58:21.457Z,6.77
2023-02-21T08:00:49.259Z,7.17
2023-02-21T08:03:16.944Z,6.33
2023-02-21T08:05:45.949Z,5.23
2023-02-21T08:08:15.439Z,4.90
2023-02-21T08:10:43.080Z,5.30
2023-02-21T08:13:10.702Z,5.40
2023-02-21T08:15:39.649Z,4.87
2023-02-21T08:18:07.367Z,4.87
2023-02-21T08:20:35.156Z,5.30
2023-02-21T08:23:02.858Z,5.27
2023-02-21T08:25:30.509Z,4.20
2023-02-21T08:27:58.794Z,4.37
2023-02-21T08:30:26.495Z,4.87
2023-02-21T08:32:55.507Z,5.40
2023-02-21T08:35:23.264Z,4.00
2023-02-21T08:37:51.821Z,4.53
2023-02-21T08:40:20.661Z,4.40
2023-02-21T08:42:50.740Z,3.70
2023-02-21T08:45:20.857Z,4.13
2023-02-21T08:47:48.864Z,3.73
2023-02-21T08:50:18.888Z,3.67
2023-02-21T08:52:47.472Z,4.07
2023-02-21T08:55:15.436Z,3.23
2023-02-21T08:57:43.094Z,3.87
2023-02-21T09:00:14.445Z,3.90
2023-02-21T09:02:42.248Z,3.27
2023-02-21T09:05:12.082Z,3.77
2023-02-21T09:07:41.133Z,3.83
2023-02-21T09:10:10.751Z,3.70
2023-02-21T09:12:38.731Z,4.07
2023-02-21T09:15:07.051Z,3.40
2023-02-21T09:17:34.816Z,3.17
2023-02-21T09:20:02.679Z,3.57
2023-02-21T09:22:31.555Z,4.23
2023-02-21T09:25:01.211Z,3.77
2023-02-21T09:27:37.434Z,3.40
2023-02-21T09:30:07.242Z,3.37
2023-02-21T09:32:35.196Z,3.10
2023-02-21T09:35:03.223Z,3.17
2023-02-21T09:37:32.428Z,3.50
2023-02-21T09:40:01.796Z,3.67
2023-02-21T09:42:31.767Z,3.63
2023-02-21T09:44:59.910Z,3.90
2023-02-21T09:47:31.241Z,4.00
2023-02-21T09:50:01.933Z,4.10
2023-02-21T09:52:34.399Z,4.23
2023-02-21T09:55:08.776Z,3.73
2023-02-21T09:57:37.792Z,4.13
2023-02-21T10:00:18.404Z,3.73
2023-02-21T10:02:57.878Z,4.03
2023-02-21T10:05:38.828Z,5.13
2023-02-21T10:08:15.459Z,4.30
2023-02-21T10:10:47.749Z,4.27
2023-02-21T10:13:29.472Z,3.40
2023-02-21T10:16:02.980Z,3.27
2023-02-21T10:18:40.824Z,3.50
2023-02-21T10:21:17.823Z,3.30
2023-02-21T10:23:47.827Z,3.63
2023-02-21T10:26:21.424Z,3.50
2023-02-21T10:28:50.513Z,3.43
2023-02-21T10:31:24.181Z,3.37
2023-02-21T10:33:52.107Z,3.17
2023-02-21T10:36:22.358Z,3.17
2023-02-21T10:38:56.781Z,3.73
2023-02-21T10:41:31.123Z,4.20
2023-02-21T10:44:03.002Z,4.47
2023-02-21T10:46:36.870Z,3.20
2023-02-21T10:49:22.257Z,3.33
2023-02-21T10:52:05.031Z,4.27
2023-02-21T10:54:35.123Z,3.50
2023-02-21T10:57:07.871Z,3.50
2023-02-21T10:59:38.762Z,3.40
2023-02-21T11:02:29.298Z,3.50
2023-02-21T11:05:07.805Z,3.43
2023-02-21T11:07:36.357Z,3.60
2023-02-21T11:10:24.165Z,3.10
2023-02-21T11:13:03.045Z,2.93
2023-02-21T11:15:30.746Z,3.00
2023-02-21T11:18:12.686Z,2.83
2023-02-21T11:20:40.536Z,2.20
2023-02-21T11:23:20.817Z,2.70
2023-02-21T11:25:50.122Z,2.70
2023-02-21T11:28:23.837Z,2.40
2023-02-21T11:31:06.136Z,1.87
2023-02-21T11:33:38.214Z,2.10
2023-02-21T11:36:13.988Z,2.33
2023-02-21T11:38:45.897Z,2.10
2023-02-21T11:41:19.185Z,2.10
2023-02-21T11:43:50.697Z,2.50
2023-02-21T11:46:29.153Z,2.27
2023-02-21T11:49:04.540Z,2.30
2023-02-21T11:51:50.348Z,2.30
2023-02-21T11:54:20.915Z,2.57
2023-02-21T11:56:55.347Z,2.60
2023-02-21T11:59:47.123Z,2.20
2023-02-21T12:02:43.312Z,2.43
2023-02-21T12:05:32.097Z,2.30
2023-02-21T12:08:13.630Z,2.57
2023-02-21T12:10:48.056Z,2.40
2023-02-21T12:13:25.074Z,2.87
2023-02-21T12:16:00.832Z,2.50
2023-02-21T12:18:42.229Z,2.30
2023-02-21T12:21:38.721Z,2.30
2023-02-21T12:24:20.038Z,2.27
2023-02-21T12:26:54.572Z,2.07
2023-02-21T12:29:40.236Z,2.00
2023-02-21T12:32:26.217Z,2.50
2023-02-21T12:35:15.500Z,2.00
2023-02-21T12:37:51.533Z,2.27
2023-02-21T12:40:39.860Z,1.80
2023-02-21T12:43:31.633Z,1.97
2023-02-21T12:46:09.748Z,1.83
2023-02-21T12:48:45.493Z,2.03
2023-02-21T12:51:17.901Z,2.07
2023-02-21T12:53:52.109Z,2.30
2023-02-21T12:56:24.839Z,1.73
2023-02-21T12:58:57.753Z,1.87
2023-02-21T13:01:31.139Z,2.50
2023-02-21T13:04:10.727Z,2.10
2023-02-21T13:06:43.760Z,2.93
2023-02-21T13:09:22.004Z,3.00
2023-02-21T13:11:56.117Z,2.60
2023-02-21T13:14:29.049Z,2.97
2023-02-21T13:16:56.767Z,2.80
2023-02-21T13:19:32.413Z,2.80
2023-02-21T13:22:55.179Z,3.43
2023-02-21T13:25:34.551Z,3.40
2023-02-21T13:28:08.057Z,3.70
2023-02-21T13:30:41.737Z,4.00
2023-02-21T13:33:25.600Z,3.60
2023-02-21T13:35:58.671Z,3.30
2023-02-21T13:38:29.476Z,3.93
2023-02-21T13:41:06.990Z,2.90
2023-02-21T13:43:37.220Z,2.90
2023-02-21T13:46:26.394Z,3.40
2023-02-21T13:49:32.935Z,3.67
2023-02-21T13:52:30.714Z,3.23
2023-02-21T13:55:31.412Z,3.30
2023-02-21T13:58:46.575Z,3.17
2023-02-21T14:01:22.481Z,3.63
2023-02-21T14:03:50.914Z,4.03
2023-02-21T14:06:36.754Z,3.93
2023-02-21T14:09:13.692Z,4.27
2023-02-21T14:11:49.606Z,3.33
2023-02-21T14:14:25.101Z,3.50
2023-02-21T14:16:58.937Z,3.43
2023-02-21T14:19:31.944Z,3.47
2023-02-21T14:22:03.869Z,4.10
2023-02-21T14:24:35.790Z,5.57
2023-02-21T14:27:26.110Z,4.00
2023-02-21T14:30:27.909Z,3.60
2023-02-21T14:32:59.156Z,3.60
2023-02-21T14:35:33.427Z,4.00
2023-02-21T14:38:03.713Z,3.53
2023-02-21T14:40:41.965Z,3.70
2023-02-21T14:43:28.360Z,3.20
2023-02-21T14:46:08.279Z,3.57
2023-02-21T14:48:58.009Z,3.70
2023-02-21T14:52:03.042Z,3.60
2023-02-21T14:55:01.311Z,3.60
2023-02-21T14:57:58.678Z,3.07
2023-02-21T15:00:34.306Z,2.97
2023-02-21T15:03:10.067Z,2.80
2023-02-21T15:05:45.917Z,3.57
2023-02-21T15:08:17.796Z,2.87
2023-02-21T15:10:47.012Z,2.70
2023-02-21T15:13:23.931Z,3.37
2023-02-21T15:15:58.588Z,3.00
2023-02-21T15:18:29.573Z,3.33
2023-02-21T15:21:08.195Z,3.53
2023-02-21T15:23:36.172Z,3.03
2023-02-21T15:26:18.533Z,3.30
2023-02-21T15:28:46.623Z,2.90
2023-02-21T15:31:18.060Z,4.10
2023-02-21T15:33:49.487Z,2.87
2023-02-21T15:36:21.658Z,3.27
2023-02-21T15:38:53.336Z,3.47
2023-02-21T15:41:30.143Z,3.47
2023-02-21T15:44:04.708Z,3.53
2023-02-21T15:46:40.774Z,4.90
2023-02-21T15:49:17.497Z,3.40
2023-02-21T15:51:45.220Z,4.73
2023-02-21T15:54:29.122Z,3.80
2023-02-21T15:57:22.651Z,3.53
2023-02-21T15:59:57.776Z,4.60
2023-02-21T16:02:26.638Z,4.07
2023-02-21T16:04:55.643Z,3.80
2023-02-21T16:07:35.002Z,3.87
2023-02-21T16:10:05.911Z,4.73
2023-02-21T16:12:36.979Z,3.80
2023-02-21T16:15:08.270Z,3.67
2023-02-21T16:17:38.517Z,3.83
2023-02-21T16:20:17.590Z,3.77
2023-02-21T16:23:08.659Z,4.53
2023-02-21T16:25:36.471Z,5.47
2023-02-21T16:28:13.613Z,4.47
2023-02-21T16:30:41.349Z,4.40
2023-02-21T16:33:13.830Z,5.47
2023-02-21T16:35:43.612Z,4.30
2023-02-21T16:38:15.239Z,4.40
2023-02-21T16:40:42.906Z,5.47
2023-02-21T16:43:18.154Z,5.80
2023-02-21T16:45:45.878Z,5.30
2023-02-21T16:48:17.874Z,5.80
2023-02-21T16:50:47.355Z,5.43
2023-02-21T16:53:15.927Z,4.47
2023-02-21T16:55:43.848Z,4.80
2023-02-21T16:58:23.776Z,4.63
2023-02-21T17:00:53.102Z,4.77
2023-02-21T17:03:20.811Z,4.77
2023-02-21T17:05:52.812Z,4.90
2023-02-21T17:08:20.958Z,4.50
2023-02-21T17:10:48.922Z,4.40
2023-02-21T17:13:16.578Z,3.63
2023-02-21T17:15:44.311Z,4.53
2023-02-21T17:18:12.092Z,3.93
2023-02-21T17:20:39.744Z,4.80
2023-02-21T17:23:08.727Z,4.37
2023-02-21T17:25:36.485Z,4.17
2023-02-21T17:28:04.546Z,4.13
2023-02-21T17:30:32.349Z,4.47
2023-02-21T17:33:00.170Z,4.20
2023-02-21T17:35:28.492Z,4.60
2023-02-21T17:37:56.125Z,4.60
2023-02-21T17:40:25.082Z,4.47
2023-02-21T17:42:52.672Z,4.17
2023-02-21T17:45:22.158Z,3.83
2023-02-21T17:47:51.004Z,4.00
2023-02-21T17:50:19.489Z,5.40
2023-02-21T17:52:47.551Z,5.37
2023-02-21T17:55:22.243Z,5.23
2023-02-21T17:57:51.161Z,5.07
2023-02-21T18:00:23.260Z,5.87
2023-02-21T18:02:51.054Z,6.23
2023-02-21T18:05:19.438Z,6.03
2023-02-21T18:07:48.913Z,5.87
2023-02-21T18:10:17.887Z,5.90
2023-02-21T18:12:45.621Z,6.30
2023-02-21T18:15:16.294Z,6.83
2023-02-21T18:17:43.906Z,5.80
2023-02-21T18:20:14.920Z,7.10
2023-02-21T18:22:42.892Z,8.53
2023-02-21T18:25:10.687Z,7.07
2023-02-21T18:27:38.569Z,8.27
2023-02-21T18:30:07.080Z,7.53
2023-02-21T18:32:36.138Z,7.33
2023-02-21T18:35:03.869Z,7.87
2023-02-21T18:37:31.453Z,7.90
2023-02-21T18:39:59.050Z,7.70
2023-02-21T18:42:26.692Z,7.83
2023-02-21T18:44:54.280Z,9.23
2023-02-21T18:47:21.880Z,8.80
2023-02-21T18:49:50.839Z,10.77
2023-02-21T18:52:18.765Z,14.47
2023-02-21T18:54:48.824Z,11.63
2023-02-21T18:57:17.089Z,12.57
2023-02-21T18:59:44.709Z,10.27
2023-02-21T19:02:14.629Z,11.97
2023-02-21T19:04:42.871Z,11.97
2023-02-21T19:07:16.824Z,9.60
2023-02-21T19:09:46.515Z,8.53
2023-02-21T19:12:14.117Z,10.10
2023-02-21T19:14:41.701Z,9.40
2023-02-21T19:17:09.560Z,9.97
2023-02-21T19:19:37.534Z,9.63
2023-02-21T19:22:05.551Z,10.00
2023-02-21T19:24:34.830Z,8.57
2023-02-21T19:27:02.570Z,9.83
2023-02-21T19:29:30.451Z,9.57
2023-02-21T19:31:58.461Z,10.67
2023-02-21T19:34:26.271Z,13.23
2023-02-21T19:36:53.929Z,15.93
2023-02-21T19:39:21.548Z,14.13
2023-02-21T19:41:50.585Z,16.03
2023-02-21T19:44:18.530Z,12.20
2023-02-21T19:46:46.494Z,14.60
2023-02-21T19:49:18.100Z,11.40
2023-02-21T19:51:47.473Z,16.37
2023-02-21T19:54:15.837Z,15.73
2023-02-21T19:56:43.428Z,15.00
2023-02-21T19:59:13.145Z,14.10
2023-02-21T20:01:41.141Z,13.10
2023-02-21T20:04:09.533Z,13.90
2023-02-21T20:06:37.880Z,12.13
2023-02-21T20:09:07.127Z,14.83
2023-02-21T20:11:35.664Z,15.40
2023-02-21T20:14:03.964Z,14.43
2023-02-21T20:16:38.879Z,13.77
2023-02-21T20:19:07.361Z,13.47
2023-02-21T20:21:35.456Z,14.33
2023-02-21T20:24:03.293Z,14.83
2023-02-21T20:26:31.704Z,14.67
2023-02-21T20:28:59.721Z,12.87
2023-02-21T20:31:29.895Z,14.83
2023-02-21T20:34:02.710Z,14.83
2023-02-21T20:36:31.631Z,12.53
2023-02-21T20:38:59.210Z,12.17
2023-02-21T20:41:31.006Z,13.63
2023-02-21T20:43:58.988Z,11.20
2023-02-21T20:46:28.751Z,11.53
2023-02-21T20:48:58.704Z,20.43
2023-02-21T20:51:33.048Z,29.80
2023-02-21T20:54:01.660Z,35.03
2023-02-21T20:56:33.892Z,22.23
2023-02-21T20:59:02.093Z,13.57
2023-02-21T21:01:29.730Z,13.30
2023-02-21T21:03:57.510Z,12.20
2023-02-21T21:06:26.165Z,10.80
2023-02-21T21:08:55.329Z,11.20
2023-02-21T21:11:23.928Z,11.40
2023-02-21T21:13:51.608Z,11.13
2023-02-21T21:16:20.144Z,9.90
2023-02-21T21:18:47.812Z,11.27
2023-02-21T21:21:15.763Z,10.97
2023-02-21T21:23:43.548Z,11.47
2023-02-21T21:26:12.695Z,12.17
2023-02-21T21:28:41.811Z,10.97
2023-02-21T21:31:09.885Z,11.37
2023-02-21T21:33:37.532Z,12.60
2023-02-21T21:36:08.955Z,11.53
2023-02-21T21:38:38.751Z,12.33
2023-02-21T21:41:13.224Z,11.43
2023-02-21T21:43:43.703Z,10.90
2023-02-21T21:46:12.862Z,11.97
2023-02-21T21:48:43.684Z,11.17
2023-02-21T21:51:13.986Z,11.50
2023-02-21T21:53:42.517Z,10.80
2023-02-21T21:56:11.353Z,12.33
2023-02-21T21:58:39.051Z,11.70
2023-02-21T22:01:08.114Z,12.13
2023-02-21T22:03:35.755Z,11.77
2023-02-21T22:06:03.392Z,12.77
2023-02-21T22:08:31.532Z,12.40
2023-02-21T22:11:00.148Z,13.83
2023-02-21T22:13:29.455Z,13.70
2023-02-21T22:15:57.267Z,14.10
2023-02-21T22:18:26.238Z,16.07
2023-02-21T22:20:53.931Z,15.27
2023-02-21T22:23:24.073Z,15.37
2023-02-21T22:25:52.102Z,16.37
2023-02-21T22:28:19.812Z,13.83
2023-02-21T22:30:47.671Z,13.60
2023-02-21T22:33:18.775Z,12.50
2023-02-21T22:35:48.165Z,13.23
2023-02-21T22:38:17.382Z,13.43
2023-02-21T22:40:47.984Z,13.00
2023-02-21T22:43:17.772Z,15.27
2023-02-21T22:45:49.717Z,16.90
2023-02-21T22:48:20.588Z,17.70
2023-02-21T22:50:50.382Z,16.07
2023-02-21T22:53:19.655Z,17.67
2023-02-21T22:55:51.756Z,17.90
2023-02-21T22:58:20.957Z,18.33
2023-02-21T23:00:49.914Z,19.07
2023-02-21T23:03:18.008Z,21.50
2023-02-21T23:05:49.457Z,19.77
2023-02-21T23:08:21.013Z,18.47
2023-02-21T23:10:49.436Z,19.03
2023-02-21T23:13:19.880Z,17.23
2023-02-21T23:15:48.340Z,17.17
2023-02-21T23:18:20.683Z,16.73
2023-02-21T23:20:52.556Z,17.93
2023-02-21T23:23:25.877Z,18.13
2023-02-21T23:25:56.322Z,20.30
2023-02-21T23:28:24.030Z,19.30
2023-02-21T23:30:51.774Z,20.17
2023-02-21T23:33:22.957Z,20.13
2023-02-21T23:35:52.310Z,19.03
2023-02-21T23:38:23.000Z,19.73
2023-02-21T23:40:55.917Z,21.03
2023-02-21T23:43:25.845Z,19.87
2023-02-21T23:45:54.220Z,21.77
2023-02-21T23:48:22.557Z,20.93
2023-02-21T23:50:50.990Z,22.07
2023-02-21T23:53:22.601Z,21.73
2023-02-21T23:55:50.900Z,21.80
2023-02-21T23:58:20.320Z,23.63
